Time;durP1;ratioP1;P1;durP2;ratioP2;P2;SDS_P1;SDS_P2;PMS_P1;PMS_P2;Temp;Humidity;BMP_temperature;BMP_pressure;BME280_temperature;BME280_humidity;BME280_pressure;Samples;Min_cycle;Max_cycle;Signal;HPM_P1;HPM_P2
2022/12/16 00:00:37;;;;;;;3.38;3.10;;;;;;;1.26;100.00;98814.75;6117481;23;20045;-95
2022/12/16 00:03:15;;;;;;;3.28;3.10;;;;;;;1.25;100.00;98796.06;6114652;23;20014;-95
2022/12/16 00:05:49;;;;;;;3.30;3.03;;;;;;;1.40;100.00;98830.25;6114377;23;20017;-95
2022/12/16 00:08:18;;;;;;;4.40;3.90;;;;;;;1.34;100.00;98799.06;6111406;23;20018;-95
2022/12/16 00:11:01;;;;;;;3.55;3.22;;;;;;;1.46;100.00;98808.75;6110190;23;20021;-96
2022/12/16 00:13:30;;;;;;;2.20;2.08;;;;;;;1.33;100.00;98767.50;6083626;23;20022;-95
2022/12/16 00:15:57;;;;;;;6.50;5.35;;;;;;;1.32;100.00;98763.19;6110449;23;20037;-96
2022/12/16 00:18:27;;;;;;;7.38;3.58;;;;;;;1.38;100.00;98765.06;6107571;23;20029;-96
2022/12/16 00:24:15;;;;;;;5.97;5.30;;;;;;;1.65;100.00;98806.19;6087512;23;20018;-95
2022/12/16 00:26:56;;;;;;;8.48;5.25;;;;;;;1.26;100.00;98721.88;6084412;23;20101;-96
2022/12/16 00:29:37;;;;;;;4.40;2.75;;;;;;;1.59;100.00;98772.28;6088895;23;20033;-95
2022/12/16 00:32:06;;;;;;;4.75;4.40;;;;;;;1.15;100.00;98672.06;6064856;23;20049;-95
2022/12/16 00:34:33;;;;;;;4.82;4.43;;;;;;;1.35;100.00;98705.00;6108079;23;20095;-95
2022/12/16 00:36:59;;;;;;;3.55;2.85;;;;;;;1.11;100.00;98676.78;6083972;23;20020;-96
2022/12/16 00:39:40;;;;;;;;;;;;;;;;;;;;;
2022/12/16 00:42:12;;;;;;;5.57;4.32;;;;;;;1.11;100.00;98671.31;6090076;23;20033;-96
2022/12/16 00:44:38;;;;;;;3.72;3.42;;;;;;;1.06;100.00;98662.78;6106908;23;20049;-96
2022/12/16 00:47:04;;;;;;;1.95;1.85;;;;;;;1.27;100.00;98678.94;6080703;23;20342;-96
2022/12/16 00:49:41;;;;;;;5.50;4.40;;;;;;;1.42;100.00;98700.22;6082182;23;20014;-95
2022/12/16 00:52:07;;;;;;;3.25;3.05;;;;;;;1.04;100.00;98632.41;6081541;23;20014;-95
2022/12/16 00:54:33;;;;;;;7.15;3.22;;;;;;;1.11;100.00;98635.03;6103869;23;20013;-96
2022/12/16 00:57:02;;;;;;;2.10;1.95;;;;;;;1.07;100.00;98639.78;6055216;23;20090;-95
2022/12/16 00:59:28;;;;;;;5.13;2.83;;;;;;;1.23;100.00;98635.28;6081990;23;20020;-96
2022/12/16 01:01:56;;;;;;;4.32;3.92;;;;;;;1.40;100.00;98645.25;6105276;23;20025;-94
2022/12/16 01:04:25;;;;;;;1.23;1.17;;;;;;;1.21;100.00;98609.59;6081225;23;20458;-95
2022/12/16 01:06:51;;;;;;;2.03;1.92;;;;;;;1.42;100.00;98628.41;6078497;23;20017;-96
2022/12/16 01:09:20;;;;;;;4.90;4.57;;;;;;;1.41;100.00;98624.16;6102271;23;20022;-95
2022/12/16 01:11:46;;;;;;;1.50;1.45;;;;;;;1.24;100.00;98609.53;6122995;23;20022;-96
2022/12/16 01:14:12;;;;;;;3.80;3.50;;;;;;;1.29;100.00;98602.84;6132255;23;20052;-96
2022/12/16 01:16:38;;;;;;;2.88;2.65;;;;;;;1.32;100.00;98591.88;6107722;23;20391;-95
2022/12/16 01:19:04;;;;;;;2.00;1.90;;;;;;;1.37;100.00;98596.13;6108343;23;20047;-95
2022/12/16 01:21:30;;;;;;;3.67;3.40;;;;;;;1.48;100.00;98613.13;6132778;23;20347;-96
2022/12/16 01:23:55;;;;;;;3.13;2.88;;;;;;;1.53;100.00;98609.94;6107266;23;20009;-95
2022/12/16 01:26:21;;;;;;;4.25;3.78;;;;;;;1.37;100.00;98582.44;6131217;23;20027;-96
2022/12/16 01:28:48;;;;;;;3.72;3.47;;;;;;;1.39;100.00;98556.25;6105920;23;20449;-95
2022/12/16 01:31:16;;;;;;;5.07;3.85;;;;;;;1.38;100.00;98568.38;6105720;23;20179;-96
2022/12/16 01:33:41;;;;;;;11.90;4.75;;;;;;;1.49;100.00;98567.47;6128603;23;20434;-96
2022/12/16 01:36:08;;;;;;;4.07;3.63;;;;;;;1.77;100.00;98619.75;6104550;23;20020;-96
2022/12/16 01:38:34;;;;;;;7.10;6.22;;;;;;;1.79;100.00;98625.56;6103811;23;20469;-95
2022/12/16 01:41:00;;;;;;;1.95;1.85;;;;;;;1.52;100.00;98564.66;6105373;23;20101;-95
2022/12/16 01:43:29;;;;;;;4.28;3.97;;;;;;;1.55;100.00;98585.69;6105796;23;20016;-94
2022/12/16 01:46:27;;;;;;;2.88;2.35;;;;;;;1.68;100.00;98594.91;6105035;23;20466;-95
2022/12/16 01:49:01;;;;;;;3.53;2.80;;;;;;;1.82;100.00;98610.34;6124464;23;20458;-95
2022/12/16 01:51:37;;;;;;;1.85;1.40;;;;;;;1.70;100.00;98581.56;6109646;23;20029;-96
2022/12/16 01:54:11;;;;;;;2.25;1.65;;;;;;;1.75;100.00;98594.78;6132747;23;20029;-95
2022/12/16 01:56:41;;;;;;;0.25;0.25;;;;;;;1.92;100.00;98627.75;6135608;23;20014;-95
2022/12/16 01:59:07;;;;;;;0.45;0.45;;;;;;;1.99;100.00;98609.28;6111666;23;20010;-96
2022/12/16 02:01:43;;;;;;;4.10;1.45;;;;;;;2.07;100.00;98563.44;6108466;23;20014;-96
2022/12/16 02:04:08;;;;;;;0.63;0.63;;;;;;;2.10;100.00;98603.66;6131759;23;20453;-96
2022/12/16 02:06:37;;;;;;;0.43;0.43;;;;;;;2.38;100.00;98608.66;6132892;23;20021;-96
2022/12/16 02:09:07;;;;;;;0.25;0.25;;;;;;;2.14;100.00;98544.19;6106136;23;20010;-96
2022/12/16 02:12:23;;;;;;;2.08;1.88;;;;;;;2.56;100.00;98613.81;6129794;23;20021;-96
2022/12/16 02:15:11;;;;;;;0.80;0.68;;;;;;;2.58;100.00;98620.44;6041194;23;20022;-95
2022/12/16 02:17:49;;;;;;;0.15;0.15;;;;;;;2.23;100.00;98558.09;5966482;23;20016;-95
2022/12/16 02:20:33;;;;;;;0.30;0.30;;;;;;;2.57;100.00;98616.16;6085903;23;20028;-96
2022/12/16 02:23:11;;;;;;;3.35;0.90;;;;;;;2.59;100.00;98613.00;6128635;23;20017;-96
2022/12/16 02:25:46;;;;;;;3.05;2.85;;;;;;;2.63;100.00;98598.03;6131544;23;20018;-96
2022/12/16 02:28:38;;;;;;;1.02;0.90;;;;;;;2.27;100.00;98543.16;6107315;23;20017;-95
2022/12/16 02:31:09;;;;;;;0.60;0.60;;;;;;;2.65;100.00;98603.88;6131506;23;20021;-96
2022/12/16 02:33:57;;;;;;;1.08;0.95;;;;;;;2.66;100.00;98601.91;6131853;23;20354;-96
2022/12/16 02:36:38;;;;;;;2.63;2.22;;;;;;;2.63;100.00;98589.06;6132017;23;20025;-96
2022/12/16 02:39:18;;;;;;;3.10;2.30;;;;;;;2.28;100.00;98533.00;6133376;23;20021;-96
2022/12/16 02:41:54;;;;;;;0.63;0.63;;;;;;;2.65;100.00;98557.34;6114133;23;20022;-96
2022/12/16 02:44:33;;;;;;;4.38;1.05;;;;;;;2.32;100.00;98529.00;6113775;23;20018;-95
2022/12/16 02:46:59;;;;;;;0.30;0.30;;;;;;;2.43;100.00;98526.06;6116246;23;20040;-96
2022/12/16 02:49:25;;;;;;;0.63;0.63;;;;;;;2.65;100.00;98568.28;6113498;23;20014;-94
2022/12/16 02:51:51;;;;;;;1.75;1.65;;;;;;;2.56;100.00;98565.31;6132283;23;20104;-95
2022/12/16 02:54:17;;;;;;;0.88;0.88;;;;;;;2.36;100.00;98539.88;6107347;23;20017;-96
2022/12/16 02:57:10;;;;;;;0.93;0.80;;;;;;;2.71;100.00;98620.63;6107521;23;20013;-96
2022/12/16 02:59:39;;;;;;;1.25;1.17;;;;;;;2.71;100.00;98596.72;6134162;23;20017;-95
2022/12/16 03:02:11;;;;;;;0.90;0.75;;;;;;;2.38;100.00;98559.41;6134181;23;20018;-95
2022/12/16 03:04:43;;;;;;;1.80;1.45;;;;;;;2.62;100.00;98604.72;6107747;23;20045;-95
2022/12/16 03:07:12;;;;;;;0.57;0.57;;;;;;;2.46;100.00;98577.25;6105667;23;20446;-95
2022/12/16 03:09:39;;;;;;;2.17;2.08;;;;;;;2.40;100.00;98562.50;6106289;23;20009;-96
2022/12/16 03:12:09;;;;;;;0.43;0.43;;;;;;;2.42;100.00;98557.38;6108577;23;20033;-96
2022/12/16 03:14:38;;;;;;;0.85;0.82;;;;;;;2.42;100.00;98548.41;6107232;23;20028;-96
2022/12/16 03:17:05;;;;;;;2.30;1.17;;;;;;;2.35;100.00;98547.31;6132817;23;20076;-95
2022/12/16 03:19:31;;;;;;;1.30;1.15;;;;;;;2.38;100.00;98553.94;6108556;23;20005;-94
2022/12/16 03:22:06;;;;;;;2.72;1.65;;;;;;;2.67;100.00;98598.75;6108491;23;20005;-94
2022/12/16 03:24:32;;;;;;;1.08;1.08;;;;;;;2.25;100.00;98551.03;6108561;23;20009;-95
2022/12/16 03:27:28;;;;;;;1.48;1.35;;;;;;;2.55;100.00;98602.09;6106508;23;20018;-95
2022/12/16 03:30:05;;;;;;;4.97;1.67;;;;;;;2.52;100.00;98613.09;6131854;23;20018;-96
2022/12/16 03:32:40;;;;;;;0.43;0.43;;;;;;;2.25;100.00;98566.66;6118698;23;20104;-96
2022/12/16 03:35:13;;;;;;;1.20;1.10;;;;;;;2.39;100.00;98588.31;6119143;23;20081;-96
2022/12/16 03:37:41;;;;;;;1.13;1.02;;;;;;;2.43;100.00;98561.66;6142595;23;20018;-96
2022/12/16 03:40:11;;;;;;;3.58;1.58;;;;;;;2.41;100.00;98530.44;6119484;23;20014;-95
2022/12/16 03:42:38;;;;;;;0.73;0.70;;;;;;;2.24;100.00;98502.19;6116442;23;20014;-95
2022/12/16 03:45:08;;;;;;;1.30;1.30;;;;;;;2.60;100.00;98538.66;6115565;23;20012;-96
2022/12/16 03:47:40;;;;;;;1.55;1.45;;;;;;;2.26;100.00;98513.50;6118274;23;20013;-96
2022/12/16 03:50:06;;;;;;;2.53;2.22;;;;;;;2.18;100.00;98515.59;6116219;23;20081;-96
2022/12/16 03:52:37;;;;;;;3.97;2.67;;;;;;;2.43;100.00;98566.38;6142007;23;20013;-96
2022/12/16 03:55:09;;;;;;;4.55;1.92;;;;;;;2.08;100.00;98513.03;6116484;23;20010;-96
2022/12/16 03:57:35;;;;;;;4.05;2.53;;;;;;;2.04;100.00;98484.97;6115599;23;20017;-96
2022/12/16 04:00:05;;;;;;;1.88;1.77;;;;;;;1.95;100.00;98477.28;6115499;23;20029;-96
2022/12/16 04:02:37;;;;;;;3.25;2.67;;;;;;;2.22;100.00;98545.63;6132577;23;20021;-95
2022/12/16 04:05:03;;;;;;;2.30;2.10;;;;;;;2.09;100.00;98514.56;6106835;23;20084;-96
2022/12/16 04:07:28;;;;;;;1.88;1.77;;;;;;;1.94;100.00;98518.75;6106583;23;20014;-96
2022/12/16 04:09:54;;;;;;;4.88;4.43;;;;;;;2.17;100.00;98571.50;6105876;23;20284;-95
2022/12/16 04:26:28;;;;;;;5.22;4.55;;;;;;;1.53;100.00;98527.97;6134145;23;20010;-96
2022/12/16 04:28:54;;;;;;;3.25;1.60;;;;;;;1.73;100.00;98558.91;6106854;23;20017;-96
2022/12/16 04:31:19;;;;;;;1.13;1.13;;;;;;;1.70;100.00;98570.63;6105876;23;20018;-96
